createdAt,value
2019-05-21T00:02:22.799Z,12.20
2019-05-21T00:04:52.778Z,12.20
2019-05-21T00:07:23.026Z,12.10
2019-05-21T00:09:52.931Z,12.10
2019-05-21T00:12:22.773Z,12.10
2019-05-21T00:14:52.757Z,12.10
2019-05-21T00:17:22.843Z,12.10
2019-05-21T00:19:52.702Z,12.00
2019-05-21T00:22:22.644Z,12.10
2019-05-21T00:24:52.821Z,12.10
2019-05-21T00:27:22.915Z,12.10
2019-05-21T00:30:28.796Z,12.10
2019-05-21T00:33:34.560Z,12.00
2019-05-21T00:36:41.133Z,12.00
2019-05-21T00:39:46.851Z,12.00
2019-05-21T00:42:20.036Z,12.00
2019-05-21T00:44:50.120Z,12.00
2019-05-21T00:47:20.209Z,12.00
2019-05-21T00:49:50.303Z,12.00
2019-05-21T00:52:20.195Z,12.00
2019-05-21T00:54:50.297Z,12.00
2019-05-21T00:57:20.442Z,12.00
2019-05-21T00:59:50.375Z,12.00
2019-05-21T01:02:20.189Z,12.00
2019-05-21T01:05:00.401Z,12.00
2019-05-21T01:07:21.807Z,12.00
2019-05-21T01:09:51.899Z,12.00
2019-05-21T01:12:21.729Z,12.00
2019-05-21T01:14:51.591Z,12.00
2019-05-21T01:17:21.666Z,12.00
2019-05-21T01:19:51.513Z,12.00
2019-05-21T01:22:21.402Z,12.00
2019-05-21T01:24:51.483Z,12.00
2019-05-21T01:27:21.384Z,11.90
2019-05-21T01:29:51.368Z,11.90
2019-05-21T01:32:21.449Z,11.90
2019-05-21T01:34:51.307Z,11.90
2019-05-21T01:37:21.203Z,11.90
2019-05-21T01:39:51.308Z,11.90
2019-05-21T01:42:21.373Z,11.90
2019-05-21T01:44:51.211Z,11.90
2019-05-21T01:47:21.047Z,12.00
2019-05-21T01:49:51.172Z,11.90
2019-05-21T01:52:21.040Z,11.90
2019-05-21T01:54:51.130Z,11.90
2019-05-21T01:57:20.952Z,11.90
2019-05-21T01:59:51.029Z,11.90
2019-05-21T02:02:21.093Z,11.90
2019-05-21T02:04:51.241Z,11.90
2019-05-21T02:07:21.389Z,11.90
2019-05-21T02:10:00.236Z,11.90
2019-05-21T02:12:30.080Z,11.90
2019-05-21T02:15:00.154Z,11.90
2019-05-21T02:17:30.066Z,11.90
2019-05-21T02:19:59.875Z,11.90
2019-05-21T02:22:29.726Z,11.90
2019-05-21T02:24:59.786Z,11.90
2019-05-21T02:27:29.625Z,11.90
2019-05-21T02:29:59.653Z,12.00
2019-05-21T02:32:29.458Z,13.20
2019-05-21T02:36:22.497Z,15.70
2019-05-21T02:38:52.761Z,16.70
2019-05-21T02:41:22.547Z,17.60
2019-05-21T02:43:52.533Z,18.30
2019-05-21T02:46:22.329Z,18.90
2019-05-21T02:51:05.201Z,20.00
2019-05-21T02:53:35.079Z,20.40
2019-05-21T02:56:05.006Z,20.70
2019-05-21T03:00:27.535Z,21.10
2019-05-21T03:02:58.387Z,21.40
2019-05-21T03:05:28.438Z,21.40
2019-05-21T03:07:58.609Z,21.40
2019-05-21T03:10:28.652Z,21.20
2019-05-21T03:12:58.522Z,21.10
2019-05-21T03:15:28.331Z,21.10
2019-05-21T03:17:58.464Z,21.00
2019-05-21T03:20:28.281Z,21.00
2019-05-21T03:22:58.119Z,20.90
2019-05-21T03:25:28.031Z,20.90
2019-05-21T03:27:57.831Z,20.90
2019-05-21T03:30:27.620Z,20.90
2019-05-21T03:32:57.745Z,20.90
2019-05-21T03:35:27.550Z,20.90
2019-05-21T03:37:57.431Z,20.90
2019-05-21T03:40:27.604Z,20.90
2019-05-21T03:42:57.408Z,20.90
2019-05-21T03:45:27.532Z,20.90
2019-05-21T03:47:57.770Z,20.90
2019-05-21T03:50:27.550Z,20.90
2019-05-21T03:52:58.493Z,20.90
2019-05-21T03:55:28.282Z,20.90
2019-05-21T03:57:58.116Z,20.90
2019-05-21T04:00:28.052Z,20.90
2019-05-21T04:02:57.947Z,20.90
2019-05-21T04:05:27.981Z,20.90
2019-05-21T04:07:58.115Z,20.90
2019-05-21T04:10:27.966Z,20.90
2019-05-21T04:13:07.339Z,20.90
2019-05-21T04:15:40.711Z,20.90
2019-05-21T04:18:18.224Z,20.90
2019-05-21T04:20:48.034Z,20.90
2019-05-21T04:23:18.167Z,20.90
2019-05-21T04:25:47.986Z,20.90
2019-05-21T04:28:17.780Z,20.90
2019-05-21T04:30:47.598Z,20.80
2019-05-21T04:33:17.383Z,20.90
2019-05-21T04:35:47.199Z,20.90
2019-05-21T04:38:17.256Z,20.90
2019-05-21T04:40:47.125Z,20.80
2019-05-21T04:43:17.210Z,20.90
2019-05-21T04:45:47.071Z,20.90
2019-05-21T04:48:16.876Z,20.90
2019-05-21T04:50:46.676Z,20.90
2019-05-21T04:53:16.746Z,20.90
2019-05-21T04:55:46.555Z,20.90
2019-05-21T04:58:16.688Z,20.90
2019-05-21T05:00:46.503Z,20.90
2019-05-21T05:03:16.713Z,20.90
2019-05-21T05:05:46.543Z,20.90
2019-05-21T05:08:16.339Z,20.90
2019-05-21T05:10:49.183Z,20.90
2019-05-21T05:13:17.956Z,20.90
2019-05-21T05:15:47.756Z,20.90
2019-05-21T05:18:17.563Z,20.80
2019-05-21T05:20:47.761Z,20.80
2019-05-21T05:23:17.601Z,20.90
2019-05-21T05:25:47.688Z,20.90
2019-05-21T05:28:17.811Z,20.80
2019-05-21T05:30:47.614Z,20.80
2019-05-21T05:33:17.755Z,20.80
2019-05-21T05:35:47.870Z,20.80
2019-05-21T05:38:17.670Z,20.80
2019-05-21T05:40:47.799Z,20.80
2019-05-21T05:43:20.532Z,20.80
2019-05-21T05:45:49.364Z,20.80
2019-05-21T05:48:19.922Z,20.80
2019-05-21T05:51:06.567Z,20.80
2019-05-21T05:53:56.282Z,20.80
2019-05-21T05:56:28.474Z,20.80
2019-05-21T05:58:58.465Z,20.80
2019-05-21T06:01:30.113Z,20.80
2019-05-21T06:04:00.249Z,20.80
2019-05-21T06:06:30.196Z,20.80
2019-05-21T06:08:59.994Z,20.80
2019-05-21T06:11:29.789Z,20.80
2019-05-21T06:13:59.590Z,20.80
2019-05-21T06:16:29.724Z,20.80
2019-05-21T06:18:59.945Z,20.80
2019-05-21T06:21:29.744Z,20.80
2019-05-21T06:23:59.546Z,20.80
2019-05-21T06:26:29.688Z,20.80
2019-05-21T06:28:59.839Z,20.80
2019-05-21T06:31:31.055Z,20.80
2019-05-21T06:34:01.177Z,20.80
2019-05-21T06:36:31.503Z,20.80
2019-05-21T06:39:01.306Z,20.70
2019-05-21T06:41:32.901Z,20.80
2019-05-21T06:44:03.244Z,20.80
2019-05-21T06:46:33.464Z,20.80
2019-05-21T06:49:03.268Z,20.70
2019-05-21T06:51:33.139Z,20.80
2019-05-21T06:54:03.084Z,20.70
2019-05-21T06:56:32.915Z,20.80
2019-05-21T06:59:02.737Z,20.70
2019-05-21T07:01:32.633Z,20.80
2019-05-21T07:04:02.452Z,20.70
2019-05-21T07:06:32.582Z,20.70
2019-05-21T07:09:02.457Z,20.70
2019-05-21T07:11:34.152Z,20.70
2019-05-21T07:14:04.475Z,20.70
2019-05-21T07:16:34.295Z,20.70
2019-05-21T07:19:04.520Z,20.70
2019-05-21T07:21:34.327Z,20.70
2019-05-21T07:24:04.317Z,20.70
2019-05-21T07:28:48.514Z,20.90
2019-05-21T07:31:18.876Z,17.70
2019-05-21T07:33:49.059Z,14.50
2019-05-21T07:36:19.180Z,13.50
2019-05-21T07:38:54.082Z,12.80
2019-05-21T07:41:20.563Z,12.40
2019-05-21T07:43:50.488Z,12.40
2019-05-21T07:46:20.365Z,12.30
2019-05-21T07:48:50.273Z,12.20
2019-05-21T07:51:20.138Z,12.10
2019-05-21T07:53:50.231Z,12.10
2019-05-21T07:56:20.353Z,12.00
2019-05-21T07:58:51.491Z,12.00
2019-05-21T08:01:21.631Z,12.00
2019-05-21T08:03:51.504Z,12.00
2019-05-21T08:06:21.644Z,12.00
2019-05-21T08:08:51.479Z,12.00
2019-05-21T08:11:21.579Z,12.00
2019-05-21T08:13:51.471Z,12.00
2019-05-21T08:16:21.283Z,12.10
2019-05-21T08:18:51.095Z,12.10
2019-05-21T08:21:21.255Z,12.10
2019-05-21T08:23:51.360Z,12.10
2019-05-21T08:26:21.480Z,12.10
2019-05-21T08:28:51.702Z,12.20
2019-05-21T08:31:21.826Z,12.10
2019-05-21T08:33:51.658Z,12.10
2019-05-21T08:36:21.467Z,12.20
2019-05-21T08:38:51.290Z,12.20
2019-05-21T08:41:21.155Z,12.10
2019-05-21T08:43:51.048Z,12.30
2019-05-21T08:46:20.893Z,12.20
2019-05-21T08:48:51.070Z,12.20
2019-05-21T08:51:21.251Z,12.20
2019-05-21T08:53:51.074Z,12.20
2019-05-21T08:56:20.881Z,12.30
2019-05-21T08:58:50.991Z,12.30
2019-05-21T09:01:22.673Z,12.40
2019-05-21T09:03:52.616Z,12.40
2019-05-21T09:06:22.796Z,12.40
2019-05-21T09:08:52.697Z,12.40
2019-05-21T09:11:22.521Z,12.50
2019-05-21T09:13:52.336Z,12.60
2019-05-21T09:16:22.258Z,12.60
2019-05-21T09:18:52.470Z,12.60
2019-05-21T09:21:22.288Z,12.70
2019-05-21T09:23:52.155Z,12.60
2019-05-21T09:26:22.528Z,12.70
2019-05-21T09:28:52.339Z,12.60
2019-05-21T09:31:22.173Z,12.70
2019-05-21T09:33:52.272Z,12.70
2019-05-21T09:36:25.074Z,12.60
2019-05-21T09:38:53.648Z,12.60
2019-05-21T09:41:23.771Z,12.70
2019-05-21T09:43:53.994Z,12.70
2019-05-21T09:46:23.812Z,12.70
2019-05-21T09:48:56.079Z,12.60
2019-05-21T09:51:26.323Z,12.50
2019-05-21T09:53:56.287Z,12.60
2019-05-21T09:56:32.767Z,12.70
2019-05-21T09:59:21.455Z,12.80
2019-05-21T10:01:57.397Z,12.70
2019-05-21T10:04:27.292Z,12.70
2019-05-21T10:06:57.182Z,12.70
2019-05-21T10:09:26.994Z,12.70
2019-05-21T10:11:56.871Z,12.80
2019-05-21T10:14:26.953Z,12.70
2019-05-21T10:16:57.139Z,12.70
2019-05-21T10:19:28.421Z,12.80
2019-05-21T10:21:58.272Z,12.90
2019-05-21T10:24:29.217Z,12.90
2019-05-21T10:26:59.441Z,13.00
2019-05-21T10:29:31.253Z,13.10
2019-05-21T10:32:01.474Z,13.00
2019-05-21T10:34:31.705Z,13.00
2019-05-21T10:37:01.603Z,13.00
2019-05-21T10:39:31.597Z,13.10
2019-05-21T10:42:01.404Z,13.10
2019-05-21T10:44:31.231Z,13.00
2019-05-21T10:47:05.623Z,13.10
2019-05-21T10:49:35.512Z,13.00
2019-05-21T10:52:05.420Z,13.00
2019-05-21T10:54:35.301Z,13.00
2019-05-21T10:57:06.483Z,13.00
2019-05-21T10:59:36.366Z,13.00
2019-05-21T11:02:14.203Z,13.00
2019-05-21T11:04:45.695Z,13.10
2019-05-21T11:07:17.397Z,13.10
2019-05-21T11:09:47.522Z,13.10
2019-05-21T11:12:17.736Z,13.20
2019-05-21T11:14:47.649Z,13.20
2019-05-21T11:17:17.995Z,13.10
2019-05-21T11:19:48.197Z,13.10
2019-05-21T11:22:18.316Z,13.10
2019-05-21T11:24:48.433Z,13.20
2019-05-21T11:27:18.663Z,13.20
2019-05-21T11:29:48.784Z,13.10
2019-05-21T11:32:18.897Z,13.20
2019-05-21T11:34:50.371Z,13.20
2019-05-21T11:37:20.487Z,13.10
2019-05-21T11:39:50.384Z,13.20
2019-05-21T11:42:20.227Z,13.10
2019-05-21T11:44:50.321Z,13.00
2019-05-21T11:47:20.441Z,13.00
2019-05-21T11:49:50.331Z,12.90
2019-05-21T11:52:20.224Z,13.00
2019-05-21T11:54:50.463Z,13.00
2019-05-21T11:57:20.374Z,12.90
2019-05-21T11:59:50.195Z,12.90
2019-05-21T12:02:20.033Z,12.90
2019-05-21T12:04:49.866Z,13.00
2019-05-21T12:07:20.065Z,13.00
2019-05-21T12:09:50.198Z,13.00
2019-05-21T12:12:20.314Z,12.90
2019-05-21T12:14:50.168Z,13.00
2019-05-21T12:17:19.991Z,13.10
2019-05-21T12:19:49.897Z,13.10
2019-05-21T12:22:19.785Z,13.10
2019-05-21T12:24:49.684Z,13.10
2019-05-21T12:27:19.530Z,13.10
2019-05-21T12:29:49.411Z,13.20
2019-05-21T12:32:21.177Z,13.20
2019-05-21T12:34:50.785Z,13.30
2019-05-21T12:37:20.661Z,13.30
2019-05-21T12:39:50.578Z,13.20
2019-05-21T12:42:20.743Z,13.30
2019-05-21T12:44:50.629Z,13.30
2019-05-21T12:47:20.534Z,13.30
2019-05-21T12:49:51.674Z,13.40
2019-05-21T12:52:21.656Z,13.30
2019-05-21T12:54:51.637Z,13.30
2019-05-21T12:57:21.522Z,13.40
2019-05-21T12:59:51.515Z,13.40
2019-05-21T13:02:21.413Z,13.40
2019-05-21T13:04:51.227Z,13.60
2019-05-21T13:07:21.425Z,13.60
2019-05-21T13:09:51.647Z,13.60
2019-05-21T13:12:21.456Z,13.70
2019-05-21T13:14:51.297Z,13.70
2019-05-21T13:17:21.523Z,13.80
2019-05-21T13:19:51.738Z,13.80
2019-05-21T13:22:21.564Z,13.60
2019-05-21T13:24:51.410Z,13.60
2019-05-21T13:27:21.476Z,13.50
2019-05-21T13:29:51.338Z,13.50
2019-05-21T13:32:21.198Z,13.50
2019-05-21T13:34:51.420Z,13.50
2019-05-21T13:37:21.560Z,13.30
2019-05-21T13:39:51.575Z,13.20
2019-05-21T13:42:21.392Z,13.30
2019-05-21T13:44:51.244Z,13.10
2019-05-21T13:47:21.120Z,13.20
2019-05-21T13:49:51.208Z,13.20
2019-05-21T13:52:21.059Z,13.20
2019-05-21T13:54:51.149Z,13.20
2019-05-21T13:57:21.167Z,13.20
2019-05-21T13:59:51.050Z,13.30
2019-05-21T14:02:21.131Z,13.30
2019-05-21T14:04:51.031Z,13.30
2019-05-21T14:07:21.014Z,13.30
2019-05-21T14:10:12.487Z,13.40
2019-05-21T14:12:22.499Z,13.40
2019-05-21T14:14:52.338Z,13.30
2019-05-21T14:17:22.306Z,13.30
2019-05-21T14:19:52.184Z,13.40
2019-05-21T14:22:22.333Z,13.30
2019-05-21T14:24:52.428Z,13.40
2019-05-21T14:27:22.568Z,13.50
2019-05-21T14:29:52.624Z,13.60
2019-05-21T14:32:22.525Z,13.40
2019-05-21T14:35:00.722Z,13.40
2019-05-21T14:37:23.883Z,13.30
2019-05-21T14:39:53.785Z,13.20
2019-05-21T14:42:23.609Z,13.20
2019-05-21T14:44:53.692Z,13.10
2019-05-21T14:47:23.579Z,13.10
2019-05-21T14:49:53.657Z,13.10
2019-05-21T14:52:23.866Z,13.10
2019-05-21T14:54:53.932Z,13.00
2019-05-21T14:57:23.759Z,12.90
2019-05-21T14:59:53.603Z,12.90
2019-05-21T15:02:23.657Z,12.90
2019-05-21T15:04:53.659Z,12.90
2019-05-21T15:07:23.857Z,12.90
2019-05-21T15:09:53.946Z,12.80
2019-05-21T15:12:23.829Z,12.80
2019-05-21T15:14:53.648Z,12.80
2019-05-21T15:17:23.746Z,12.80
2019-05-21T15:19:55.529Z,12.70
2019-05-21T15:22:25.659Z,12.70
2019-05-21T15:24:55.759Z,12.80
2019-05-21T15:27:25.651Z,12.70
2019-05-21T15:29:57.377Z,12.80
2019-05-21T15:32:27.949Z,12.70
2019-05-21T15:34:58.588Z,12.70
2019-05-21T15:37:28.429Z,12.70
2019-05-21T15:39:58.503Z,12.70
2019-05-21T15:42:29.555Z,12.80
2019-05-21T15:44:59.697Z,12.80
2019-05-21T15:47:29.597Z,12.80
2019-05-21T15:49:59.613Z,12.80
2019-05-21T15:52:29.578Z,12.80
2019-05-21T15:54:59.642Z,12.80
2019-05-21T15:57:29.761Z,12.90
2019-05-21T16:00:00.096Z,12.90
2019-05-21T16:02:30.000Z,12.80
2019-05-21T16:05:00.090Z,12.80
2019-05-21T16:07:30.159Z,12.90
2019-05-21T16:09:59.989Z,12.80
2019-05-21T16:12:29.874Z,12.80
2019-05-21T16:14:59.773Z,12.80
2019-05-21T16:17:29.842Z,12.80
2019-05-21T16:19:59.924Z,12.80
2019-05-21T16:22:29.986Z,12.80
2019-05-21T16:25:00.067Z,12.80
2019-05-21T16:27:30.137Z,12.80
2019-05-21T16:30:00.223Z,12.80
2019-05-21T16:32:30.285Z,12.80
2019-05-21T16:35:00.606Z,12.80
2019-05-21T16:37:30.741Z,12.80
2019-05-21T16:40:01.532Z,12.90
2019-05-21T16:42:31.655Z,12.90
2019-05-21T16:45:01.629Z,12.90
2019-05-21T16:47:44.311Z,12.90
2019-05-21T16:50:04.477Z,12.90
2019-05-21T16:52:35.002Z,13.00
2019-05-21T16:55:06.503Z,13.10
2019-05-21T16:57:36.399Z,13.10
2019-05-21T17:00:08.370Z,13.00
2019-05-21T17:02:38.302Z,13.20
2019-05-21T17:05:08.258Z,13.20
2019-05-21T17:07:38.325Z,13.20
2019-05-21T17:10:09.412Z,13.30
2019-05-21T17:12:39.330Z,13.30
2019-05-21T17:15:09.674Z,13.30
2019-05-21T17:17:39.816Z,13.30
2019-05-21T17:20:10.223Z,13.30
2019-05-21T17:22:40.563Z,13.30
2019-05-21T17:25:10.969Z,13.30
2019-05-21T17:27:41.116Z,13.20
2019-05-21T17:30:12.500Z,13.30
2019-05-21T17:32:42.681Z,13.30
2019-05-21T17:35:12.982Z,13.20
2019-05-21T17:37:42.829Z,13.30
2019-05-21T17:40:13.806Z,13.30
2019-05-21T17:42:43.986Z,13.20
2019-05-21T17:45:14.084Z,13.20
2019-05-21T17:47:44.036Z,13.30
2019-05-21T17:50:14.190Z,13.20
2019-05-21T17:52:44.100Z,13.20
2019-05-21T17:55:14.079Z,13.20
2019-05-21T17:57:45.192Z,13.10
2019-05-21T18:00:17.200Z,13.10
2019-05-21T18:02:47.494Z,13.10
2019-05-21T18:05:18.971Z,13.10
2019-05-21T18:07:48.912Z,13.20
2019-05-21T18:10:18.879Z,13.20
2019-05-21T18:12:49.738Z,13.20
2019-05-21T18:15:20.187Z,13.00
2019-05-21T18:17:50.315Z,13.10
2019-05-21T18:20:22.364Z,13.10
2019-05-21T18:22:54.261Z,13.10
2019-05-21T18:25:24.394Z,13.10
2019-05-21T18:27:54.224Z,13.10
2019-05-21T18:30:24.035Z,13.10
2019-05-21T18:32:54.273Z,13.10
2019-05-21T18:35:24.310Z,13.00
2019-05-21T18:37:54.310Z,13.00
2019-05-21T18:40:24.430Z,12.90
2019-05-21T18:42:54.391Z,12.90
2019-05-21T18:45:24.347Z,12.80
2019-05-21T18:47:54.487Z,12.80
2019-05-21T18:50:35.728Z,12.90
2019-05-21T18:52:56.158Z,12.80
2019-05-21T18:55:26.141Z,12.80
2019-05-21T18:57:56.154Z,12.80
2019-05-21T19:00:26.669Z,12.80
2019-05-21T19:02:56.972Z,12.80
2019-05-21T19:05:26.844Z,12.80
2019-05-21T19:07:56.711Z,12.80
2019-05-21T19:10:28.087Z,12.70
2019-05-21T19:13:00.731Z,12.70
2019-05-21T19:15:29.751Z,12.60
2019-05-21T19:17:59.617Z,12.60
2019-05-21T19:20:29.531Z,12.50
2019-05-21T19:22:59.490Z,12.50
2019-05-21T19:25:29.566Z,12.50
2019-05-21T19:27:59.450Z,12.50
2019-05-21T19:30:29.519Z,12.50
2019-05-21T19:32:59.583Z,12.40
2019-05-21T19:35:32.921Z,12.40
2019-05-21T19:38:01.311Z,12.30
2019-05-21T19:40:31.354Z,12.30
2019-05-21T19:43:01.285Z,12.30
2019-05-21T19:45:31.596Z,12.30
2019-05-21T19:48:01.503Z,12.30
2019-05-21T19:50:31.419Z,12.30
2019-05-21T19:53:01.742Z,12.20
2019-05-21T19:55:31.900Z,12.30
2019-05-21T19:58:01.789Z,12.30
2019-05-21T20:00:33.097Z,12.30
2019-05-21T20:03:03.292Z,12.30
2019-05-21T20:05:33.538Z,12.30
2019-05-21T20:08:03.788Z,12.30
2019-05-21T20:10:34.327Z,12.20
2019-05-21T20:13:04.271Z,12.20
2019-05-21T20:15:34.355Z,12.20
2019-05-21T20:18:07.339Z,12.20
2019-05-21T20:20:37.427Z,12.20
2019-05-21T20:23:09.717Z,12.20
2019-05-21T20:25:55.462Z,12.20
2019-05-21T20:28:13.677Z,12.20
2019-05-21T20:30:44.813Z,12.20
2019-05-21T20:33:15.219Z,12.20
2019-05-21T20:35:45.745Z,12.20
2019-05-21T20:38:18.391Z,12.20
2019-05-21T20:40:48.223Z,12.20
2019-05-21T20:43:18.499Z,12.20
2019-05-21T20:45:49.124Z,12.20
2019-05-21T20:48:21.459Z,12.20
2019-05-21T20:50:51.607Z,12.20
2019-05-21T20:53:21.684Z,12.10
2019-05-21T20:55:51.652Z,12.20
2019-05-21T20:58:22.213Z,12.10
2019-05-21T21:00:54.004Z,12.10
2019-05-21T21:03:24.723Z,12.10
2019-05-21T21:05:54.915Z,12.10
2019-05-21T21:08:27.899Z,12.00
2019-05-21T21:10:58.351Z,12.00
2019-05-21T21:13:30.041Z,12.00
2019-05-21T21:16:00.854Z,12.00
2019-05-21T21:18:31.266Z,12.00
2019-05-21T21:21:01.473Z,12.00
2019-05-21T21:23:32.680Z,12.00
2019-05-21T21:26:04.085Z,12.00
2019-05-21T21:28:34.098Z,12.00
2019-05-21T21:31:05.391Z,12.00
2019-05-21T21:33:35.776Z,11.90
2019-05-21T21:36:06.402Z,12.00
2019-05-21T21:38:37.603Z,12.00
2019-05-21T21:41:07.899Z,12.00
2019-05-21T21:43:37.863Z,12.00
2019-05-21T21:46:07.770Z,11.90
2019-05-21T21:48:37.854Z,11.90
2019-05-21T21:51:10.048Z,11.90
2019-05-21T21:53:40.724Z,11.90
2019-05-21T21:56:10.609Z,11.90
2019-05-21T21:58:40.672Z,11.90
2019-05-21T22:01:25.801Z,11.90
2019-05-21T22:03:59.614Z,11.90
2019-05-21T22:06:31.751Z,11.70
2019-05-21T22:09:03.511Z,11.70
2019-05-21T22:11:35.308Z,11.70
2019-05-21T22:14:05.745Z,11.70
2019-05-21T22:16:35.981Z,11.70
2019-05-21T22:19:06.785Z,11.70
2019-05-21T22:21:37.279Z,11.70
2019-05-21T22:24:08.138Z,11.70
2019-05-21T22:26:38.407Z,11.70
2019-05-21T22:29:08.375Z,11.70
2019-05-21T22:31:38.477Z,11.70
2019-05-21T22:34:08.462Z,11.70
2019-05-21T22:36:38.259Z,11.70
2019-05-21T22:39:11.066Z,11.70
2019-05-21T22:41:41.137Z,11.70
2019-05-21T22:44:11.027Z,11.70
2019-05-21T22:46:40.846Z,11.70
2019-05-21T22:49:11.244Z,11.80
2019-05-21T22:51:41.135Z,11.70
2019-05-21T22:54:11.204Z,11.70
2019-05-21T22:56:41.085Z,11.60
2019-05-21T22:59:11.218Z,11.70
2019-05-21T23:01:41.684Z,11.60
2019-05-21T23:04:11.637Z,11.70
2019-05-21T23:06:43.356Z,11.70
2019-05-21T23:09:13.166Z,11.70
2019-05-21T23:11:43.223Z,11.60
2019-05-21T23:14:13.432Z,11.60
2019-05-21T23:16:45.092Z,11.60
2019-05-21T23:19:29.709Z,11.50
2019-05-21T23:22:01.440Z,11.60
2019-05-21T23:24:32.516Z,11.50
2019-05-21T23:27:05.242Z,11.60
2019-05-21T23:29:35.546Z,11.50
2019-05-21T23:32:06.763Z,11.50
2019-05-21T23:34:38.324Z,11.50
2019-05-21T23:37:09.967Z,11.50
2019-05-21T23:39:40.355Z,11.50
2019-05-21T23:42:10.634Z,11.40
2019-05-21T23:44:40.948Z,11.40
2019-05-21T23:47:12.676Z,11.40
2019-05-21T23:49:42.555Z,11.40
2019-05-21T23:52:12.461Z,11.40
2019-05-21T23:54:42.527Z,11.50
2019-05-21T23:57:14.049Z,11.40
2019-05-21T23:59:44.286Z,11.50
